Terminal Aerodrome Forecast
Issued by NWS El Paso, TX

Current Version | Previous Version | Text Only | Print | Product List | Glossary On
Versions: 1 2 3 4 5 6 7 8 9 10 11 12 13 14 15 16 17 18
000
FTUS44 KEPZ 012300 RRA
TAFELP
TAF
KELP 012349Z 0200/0224 11008KT P6SM VCSH FEW025 BKN050 BKN200
     FM020200 06007KT P6SM -SHRA SCT020 BKN050
     FM021000 07005KT P6SM VCSH SCT010 BKN040 BKN090
     FM021600 09007KT P6SM FEW020 SCT040 BKN090=

USA.gov is the U.S. government's official web portal to all federal, state and local government web resources and services.